sensor_id;sensor_type;location;lat;lon;timestamp;P1;durP1;ratioP1;P2;durP2;ratioP2
7961;SDS011;4026;43.652;24.906;2023-06-24T00:02:01;8.77;;;4.70;;
7961;SDS011;4026;43.652;24.906;2023-06-24T00:04:28;8.35;;;4.80;;
7961;SDS011;4026;43.652;24.906;2023-06-24T00:06:55;7.80;;;5.15;;
7961;SDS011;4026;43.652;24.906;2023-06-24T00:09:24;7.15;;;4.80;;
7961;SDS011;4026;43.652;24.906;2023-06-24T00:11:52;7.50;;;4.95;;
7961;SDS011;4026;43.652;24.906;2023-06-24T00:14:19;6.93;;;4.38;;
7961;SDS011;4026;43.652;24.906;2023-06-24T00:16:47;7.70;;;4.70;;
7961;SDS011;4026;43.652;24.906;2023-06-24T00:19:17;6.35;;;4.85;;
7961;SDS011;4026;43.652;24.906;2023-06-24T00:21:45;7.18;;;4.57;;
7961;SDS011;4026;43.652;24.906;2023-06-24T00:24:12;6.90;;;4.60;;
7961;SDS011;4026;43.652;24.906;2023-06-24T00:26:39;7.97;;;5.32;;
7961;SDS011;4026;43.652;24.906;2023-06-24T00:29:06;7.25;;;4.47;;
7961;SDS011;4026;43.652;24.906;2023-06-24T00:31:33;6.32;;;4.55;;
7961;SDS011;4026;43.652;24.906;2023-06-24T00:34:00;5.95;;;4.22;;
7961;SDS011;4026;43.652;24.906;2023-06-24T00:36:28;8.10;;;4.70;;
7961;SDS011;4026;43.652;24.906;2023-06-24T00:38:57;9.82;;;4.65;;
7961;SDS011;4026;43.652;24.906;2023-06-24T00:41:28;7.47;;;4.78;;
7961;SDS011;4026;43.652;24.906;2023-06-24T00:43:55;7.45;;;4.82;;
7961;SDS011;4026;43.652;24.906;2023-06-24T00:46:23;7.78;;;4.68;;
7961;SDS011;4026;43.652;24.906;2023-06-24T00:48:51;6.55;;;4.65;;
7961;SDS011;4026;43.652;24.906;2023-06-24T00:51:18;7.80;;;5.40;;
7961;SDS011;4026;43.652;24.906;2023-06-24T00:53:47;7.03;;;4.80;;
7961;SDS011;4026;43.652;24.906;2023-06-24T00:56:15;8.60;;;5.03;;
7961;SDS011;4026;43.652;24.906;2023-06-24T00:58:44;7.38;;;4.95;;
7961;SDS011;4026;43.652;24.906;2023-06-24T01:01:12;6.85;;;4.75;;
7961;SDS011;4026;43.652;24.906;2023-06-24T01:03:40;11.55;;;4.75;;
7961;SDS011;4026;43.652;24.906;2023-06-24T01:06:07;6.78;;;4.70;;
7961;SDS011;4026;43.652;24.906;2023-06-24T01:08:34;6.57;;;4.78;;
7961;SDS011;4026;43.652;24.906;2023-06-24T01:11:04;7.68;;;5.22;;
7961;SDS011;4026;43.652;24.906;2023-06-24T01:13:30;7.53;;;5.18;;
7961;SDS011;4026;43.652;24.906;2023-06-24T01:15:58;8.45;;;5.53;;
7961;SDS011;4026;43.652;24.906;2023-06-24T01:18:32;7.72;;;5.22;;
7961;SDS011;4026;43.652;24.906;2023-06-24T01:21:03;8.80;;;4.72;;
7961;SDS011;4026;43.652;24.906;2023-06-24T01:23:55;7.13;;;4.95;;
7961;SDS011;4026;43.652;24.906;2023-06-24T01:30:10;7.53;;;4.75;;
7961;SDS011;4026;43.652;24.906;2023-06-24T01:32:52;6.93;;;4.85;;
7961;SDS011;4026;43.652;24.906;2023-06-24T01:35:23;8.07;;;5.32;;
7961;SDS011;4026;43.652;24.906;2023-06-24T01:37:55;8.75;;;5.57;;
7961;SDS011;4026;43.652;24.906;2023-06-24T01:40:26;10.43;;;5.25;;
7961;SDS011;4026;43.652;24.906;2023-06-24T01:42:55;7.88;;;5.18;;
7961;SDS011;4026;43.652;24.906;2023-06-24T01:45:25;9.20;;;5.40;;
7961;SDS011;4026;43.652;24.906;2023-06-24T01:48:02;8.68;;;5.13;;
7961;SDS011;4026;43.652;24.906;2023-06-24T01:50:33;8.20;;;5.20;;
7961;SDS011;4026;43.652;24.906;2023-06-24T01:53:03;7.22;;;5.10;;
7961;SDS011;4026;43.652;24.906;2023-06-24T01:55:32;8.45;;;5.53;;
7961;SDS011;4026;43.652;24.906;2023-06-24T01:58:02;7.47;;;4.93;;
7961;SDS011;4026;43.652;24.906;2023-06-24T02:00:32;7.93;;;5.03;;
7961;SDS011;4026;43.652;24.906;2023-06-24T02:03:02;7.50;;;5.07;;
7961;SDS011;4026;43.652;24.906;2023-06-24T02:05:31;9.10;;;4.70;;
7961;SDS011;4026;43.652;24.906;2023-06-24T02:08:00;8.07;;;5.32;;
7961;SDS011;4026;43.652;24.906;2023-06-24T02:10:28;9.10;;;5.38;;
7961;SDS011;4026;43.652;24.906;2023-06-24T02:12:56;6.78;;;5.05;;
7961;SDS011;4026;43.652;24.906;2023-06-24T02:15:24;7.20;;;4.78;;
7961;SDS011;4026;43.652;24.906;2023-06-24T02:17:54;6.05;;;4.80;;
7961;SDS011;4026;43.652;24.906;2023-06-24T02:20:24;8.23;;;5.15;;
7961;SDS011;4026;43.652;24.906;2023-06-24T02:22:53;7.10;;;4.85;;
7961;SDS011;4026;43.652;24.906;2023-06-24T02:25:22;8.13;;;4.93;;
7961;SDS011;4026;43.652;24.906;2023-06-24T02:27:51;6.60;;;4.95;;
7961;SDS011;4026;43.652;24.906;2023-06-24T02:30:18;7.72;;;4.85;;
7961;SDS011;4026;43.652;24.906;2023-06-24T02:32:46;8.05;;;4.82;;
7961;SDS011;4026;43.652;24.906;2023-06-24T02:35:13;7.50;;;4.82;;
7961;SDS011;4026;43.652;24.906;2023-06-24T02:37:41;6.82;;;4.80;;
7961;SDS011;4026;43.652;24.906;2023-06-24T02:40:09;7.20;;;5.13;;
7961;SDS011;4026;43.652;24.906;2023-06-24T02:42:36;8.07;;;5.03;;
7961;SDS011;4026;43.652;24.906;2023-06-24T02:45:03;13.10;;;5.22;;
7961;SDS011;4026;43.652;24.906;2023-06-24T02:47:32;7.88;;;4.90;;
7961;SDS011;4026;43.652;24.906;2023-06-24T02:50:00;10.18;;;5.50;;
7961;SDS011;4026;43.652;24.906;2023-06-24T02:52:28;8.45;;;5.15;;
7961;SDS011;4026;43.652;24.906;2023-06-24T02:54:57;7.57;;;4.80;;
7961;SDS011;4026;43.652;24.906;2023-06-24T02:57:24;6.97;;;4.75;;
7961;SDS011;4026;43.652;24.906;2023-06-24T02:59:52;8.48;;;5.30;;
7961;SDS011;4026;43.652;24.906;2023-06-24T03:02:19;8.55;;;5.15;;
7961;SDS011;4026;43.652;24.906;2023-06-24T03:04:46;8.95;;;5.20;;
7961;SDS011;4026;43.652;24.906;2023-06-24T03:07:15;8.52;;;5.05;;
7961;SDS011;4026;43.652;24.906;2023-06-24T03:09:45;7.25;;;5.07;;
7961;SDS011;4026;43.652;24.906;2023-06-24T03:12:14;7.32;;;4.97;;
7961;SDS011;4026;43.652;24.906;2023-06-24T03:14:40;8.05;;;5.57;;
7961;SDS011;4026;43.652;24.906;2023-06-24T03:17:07;7.70;;;5.25;;
7961;SDS011;4026;43.652;24.906;2023-06-24T03:19:35;8.10;;;5.40;;
7961;SDS011;4026;43.652;24.906;2023-06-24T03:22:02;9.90;;;5.18;;
7961;SDS011;4026;43.652;24.906;2023-06-24T03:24:30;9.02;;;4.68;;
7961;SDS011;4026;43.652;24.906;2023-06-24T03:26:56;8.27;;;5.45;;
7961;SDS011;4026;43.652;24.906;2023-06-24T03:29:25;7.93;;;5.43;;
7961;SDS011;4026;43.652;24.906;2023-06-24T03:31:52;7.80;;;5.18;;
7961;SDS011;4026;43.652;24.906;2023-06-24T03:34:18;9.95;;;5.88;;
7961;SDS011;4026;43.652;24.906;2023-06-24T03:36:45;9.10;;;5.63;;
7961;SDS011;4026;43.652;24.906;2023-06-24T03:39:12;9.45;;;5.28;;
7961;SDS011;4026;43.652;24.906;2023-06-24T03:41:39;8.55;;;5.57;;
7961;SDS011;4026;43.652;24.906;2023-06-24T03:44:06;7.55;;;5.53;;
7961;SDS011;4026;43.652;24.906;2023-06-24T03:46:34;8.82;;;5.55;;
7961;SDS011;4026;43.652;24.906;2023-06-24T03:49:01;8.20;;;5.05;;
7961;SDS011;4026;43.652;24.906;2023-06-24T03:51:28;8.63;;;5.38;;
7961;SDS011;4026;43.652;24.906;2023-06-24T03:53:54;8.15;;;5.35;;
7961;SDS011;4026;43.652;24.906;2023-06-24T03:56:21;6.97;;;5.00;;
7961;SDS011;4026;43.652;24.906;2023-06-24T03:58:48;6.90;;;5.13;;
7961;SDS011;4026;43.652;24.906;2023-06-24T04:01:15;8.73;;;5.13;;
7961;SDS011;4026;43.652;24.906;2023-06-24T04:03:46;6.50;;;4.70;;
7961;SDS011;4026;43.652;24.906;2023-06-24T04:06:13;8.45;;;5.70;;
7961;SDS011;4026;43.652;24.906;2023-06-24T04:08:39;8.82;;;5.35;;
7961;SDS011;4026;43.652;24.906;2023-06-24T04:11:08;8.20;;;5.25;;
7961;SDS011;4026;43.652;24.906;2023-06-24T04:13:35;9.90;;;6.10;;
7961;SDS011;4026;43.652;24.906;2023-06-24T04:16:02;8.80;;;5.53;;
7961;SDS011;4026;43.652;24.906;2023-06-24T04:18:29;8.68;;;5.50;;
7961;SDS011;4026;43.652;24.906;2023-06-24T04:20:57;9.57;;;5.85;;
7961;SDS011;4026;43.652;24.906;2023-06-24T04:23:24;8.73;;;5.75;;
7961;SDS011;4026;43.652;24.906;2023-06-24T04:25:51;7.28;;;5.40;;
7961;SDS011;4026;43.652;24.906;2023-06-24T04:28:17;10.32;;;6.80;;
7961;SDS011;4026;43.652;24.906;2023-06-24T04:30:44;11.18;;;5.97;;
7961;SDS011;4026;43.652;24.906;2023-06-24T04:33:11;9.93;;;6.43;;
7961;SDS011;4026;43.652;24.906;2023-06-24T04:35:38;9.15;;;5.78;;
7961;SDS011;4026;43.652;24.906;2023-06-24T04:38:06;10.93;;;6.05;;
7961;SDS011;4026;43.652;24.906;2023-06-24T04:40:33;7.47;;;5.60;;
7961;SDS011;4026;43.652;24.906;2023-06-24T04:43:00;9.02;;;5.53;;
7961;SDS011;4026;43.652;24.906;2023-06-24T04:45:27;7.93;;;5.65;;
7961;SDS011;4026;43.652;24.906;2023-06-24T04:47:54;9.15;;;5.75;;
7961;SDS011;4026;43.652;24.906;2023-06-24T04:50:21;8.13;;;5.60;;
7961;SDS011;4026;43.652;24.906;2023-06-24T04:52:51;7.95;;;5.72;;
7961;SDS011;4026;43.652;24.906;2023-06-24T04:55:20;7.25;;;5.32;;
7961;SDS011;4026;43.652;24.906;2023-06-24T04:57:48;8.52;;;5.78;;
7961;SDS011;4026;43.652;24.906;2023-06-24T05:00:15;9.77;;;5.50;;
7961;SDS011;4026;43.652;24.906;2023-06-24T05:02:42;8.77;;;5.60;;
7961;SDS011;4026;43.652;24.906;2023-06-24T05:05:09;9.05;;;5.50;;
7961;SDS011;4026;43.652;24.906;2023-06-24T05:07:35;7.68;;;5.35;;
7961;SDS011;4026;43.652;24.906;2023-06-24T05:10:02;8.05;;;5.65;;
7961;SDS011;4026;43.652;24.906;2023-06-24T05:12:31;7.55;;;5.53;;
7961;SDS011;4026;43.652;24.906;2023-06-24T05:14:58;9.98;;;6.18;;
7961;SDS011;4026;43.652;24.906;2023-06-24T05:17:25;8.43;;;5.75;;
7961;SDS011;4026;43.652;24.906;2023-06-24T05:19:51;7.00;;;5.18;;
7961;SDS011;4026;43.652;24.906;2023-06-24T05:22:18;7.38;;;5.15;;
7961;SDS011;4026;43.652;24.906;2023-06-24T05:24:45;7.20;;;5.20;;
7961;SDS011;4026;43.652;24.906;2023-06-24T05:27:12;9.05;;;6.05;;
7961;SDS011;4026;43.652;24.906;2023-06-24T05:29:40;7.53;;;5.72;;
7961;SDS011;4026;43.652;24.906;2023-06-24T05:32:07;11.07;;;5.78;;
7961;SDS011;4026;43.652;24.906;2023-06-24T05:34:34;7.70;;;5.72;;
7961;SDS011;4026;43.652;24.906;2023-06-24T05:37:01;8.20;;;5.15;;
7961;SDS011;4026;43.652;24.906;2023-06-24T05:39:28;8.60;;;5.60;;
7961;SDS011;4026;43.652;24.906;2023-06-24T05:41:56;9.00;;;5.32;;
7961;SDS011;4026;43.652;24.906;2023-06-24T05:44:22;6.55;;;5.30;;
7961;SDS011;4026;43.652;24.906;2023-06-24T05:46:51;7.78;;;5.80;;
7961;SDS011;4026;43.652;24.906;2023-06-24T05:49:17;7.93;;;5.45;;
7961;SDS011;4026;43.652;24.906;2023-06-24T05:51:44;8.75;;;5.63;;
7961;SDS011;4026;43.652;24.906;2023-06-24T05:54:11;7.93;;;5.88;;
7961;SDS011;4026;43.652;24.906;2023-06-24T05:56:38;6.88;;;5.35;;
7961;SDS011;4026;43.652;24.906;2023-06-24T05:59:05;6.93;;;5.55;;
7961;SDS011;4026;43.652;24.906;2023-06-24T06:01:32;9.57;;;6.38;;
7961;SDS011;4026;43.652;24.906;2023-06-24T06:04:00;7.45;;;5.35;;
7961;SDS011;4026;43.652;24.906;2023-06-24T06:06:27;7.60;;;5.47;;
7961;SDS011;4026;43.652;24.906;2023-06-24T06:08:54;8.02;;;5.65;;
7961;SDS011;4026;43.652;24.906;2023-06-24T06:11:22;8.10;;;6.00;;
7961;SDS011;4026;43.652;24.906;2023-06-24T06:13:49;8.90;;;6.00;;
7961;SDS011;4026;43.652;24.906;2023-06-24T06:16:17;8.00;;;5.90;;
7961;SDS011;4026;43.652;24.906;2023-06-24T06:18:44;9.23;;;5.53;;
7961;SDS011;4026;43.652;24.906;2023-06-24T06:21:12;8.65;;;6.00;;
7961;SDS011;4026;43.652;24.906;2023-06-24T06:23:39;8.30;;;5.63;;
7961;SDS011;4026;43.652;24.906;2023-06-24T06:26:06;10.55;;;6.10;;
7961;SDS011;4026;43.652;24.906;2023-06-24T06:28:32;7.97;;;5.78;;
7961;SDS011;4026;43.652;24.906;2023-06-24T06:30:59;9.00;;;5.93;;
7961;SDS011;4026;43.652;24.906;2023-06-24T06:33:26;8.43;;;5.97;;
7961;SDS011;4026;43.652;24.906;2023-06-24T06:35:53;10.07;;;6.22;;
7961;SDS011;4026;43.652;24.906;2023-06-24T06:38:21;7.05;;;5.55;;
7961;SDS011;4026;43.652;24.906;2023-06-24T06:40:48;8.63;;;5.97;;
7961;SDS011;4026;43.652;24.906;2023-06-24T06:43:14;7.75;;;5.43;;
7961;SDS011;4026;43.652;24.906;2023-06-24T06:45:41;7.75;;;5.80;;
7961;SDS011;4026;43.652;24.906;2023-06-24T06:48:08;7.05;;;5.57;;
7961;SDS011;4026;43.652;24.906;2023-06-24T06:50:35;8.07;;;6.10;;
7961;SDS011;4026;43.652;24.906;2023-06-24T06:53:02;8.52;;;5.90;;
7961;SDS011;4026;43.652;24.906;2023-06-24T06:55:30;7.57;;;5.70;;
7961;SDS011;4026;43.652;24.906;2023-06-24T06:57:57;8.75;;;5.47;;
7961;SDS011;4026;43.652;24.906;2023-06-24T07:00:24;8.43;;;6.25;;
7961;SDS011;4026;43.652;24.906;2023-06-24T07:02:51;9.25;;;5.93;;
7961;SDS011;4026;43.652;24.906;2023-06-24T07:05:17;9.30;;;6.32;;
7961;SDS011;4026;43.652;24.906;2023-06-24T07:07:44;7.70;;;5.95;;
7961;SDS011;4026;43.652;24.906;2023-06-24T07:10:11;11.63;;;6.20;;
7961;SDS011;4026;43.652;24.906;2023-06-24T07:12:40;8.20;;;5.85;;
7961;SDS011;4026;43.652;24.906;2023-06-24T07:15:07;8.52;;;5.57;;
7961;SDS011;4026;43.652;24.906;2023-06-24T07:17:34;7.88;;;5.53;;
7961;SDS011;4026;43.652;24.906;2023-06-24T07:20:01;9.20;;;6.07;;
7961;SDS011;4026;43.652;24.906;2023-06-24T07:22:28;8.35;;;6.07;;
7961;SDS011;4026;43.652;24.906;2023-06-24T07:24:55;8.60;;;6.30;;
7961;SDS011;4026;43.652;24.906;2023-06-24T07:27:22;7.60;;;5.65;;
7961;SDS011;4026;43.652;24.906;2023-06-24T07:29:51;8.57;;;6.07;;
7961;SDS011;4026;43.652;24.906;2023-06-24T07:32:18;7.50;;;5.93;;
7961;SDS011;4026;43.652;24.906;2023-06-24T07:34:44;9.30;;;6.38;;
7961;SDS011;4026;43.652;24.906;2023-06-24T07:37:11;9.40;;;6.10;;
7961;SDS011;4026;43.652;24.906;2023-06-24T07:39:38;8.05;;;6.10;;
7961;SDS011;4026;43.652;24.906;2023-06-24T07:42:05;6.40;;;5.30;;
7961;SDS011;4026;43.652;24.906;2023-06-24T07:44:33;8.40;;;6.32;;
7961;SDS011;4026;43.652;24.906;2023-06-24T07:47:03;6.75;;;5.30;;
7961;SDS011;4026;43.652;24.906;2023-06-24T07:49:31;6.55;;;5.50;;
7961;SDS011;4026;43.652;24.906;2023-06-24T07:51:58;10.40;;;6.50;;
7961;SDS011;4026;43.652;24.906;2023-06-24T07:54:25;8.00;;;6.00;;
7961;SDS011;4026;43.652;24.906;2023-06-24T07:56:51;7.82;;;6.05;;
7961;SDS011;4026;43.652;24.906;2023-06-24T07:59:18;8.13;;;6.13;;
7961;SDS011;4026;43.652;24.906;2023-06-24T08:01:45;7.20;;;6.10;;
7961;SDS011;4026;43.652;24.906;2023-06-24T08:04:14;8.50;;;6.28;;
7961;SDS011;4026;43.652;24.906;2023-06-24T08:06:41;8.05;;;6.18;;
7961;SDS011;4026;43.652;24.906;2023-06-24T08:09:08;8.82;;;6.00;;
7961;SDS011;4026;43.652;24.906;2023-06-24T08:11:35;7.90;;;6.03;;
7961;SDS011;4026;43.652;24.906;2023-06-24T08:14:02;9.32;;;6.45;;
7961;SDS011;4026;43.652;24.906;2023-06-24T08:16:29;8.07;;;6.10;;
7961;SDS011;4026;43.652;24.906;2023-06-24T08:18:56;6.97;;;5.63;;
7961;SDS011;4026;43.652;24.906;2023-06-24T08:21:24;7.07;;;5.70;;
7961;SDS011;4026;43.652;24.906;2023-06-24T08:23:51;6.60;;;5.32;;
7961;SDS011;4026;43.652;24.906;2023-06-24T08:26:19;8.35;;;5.90;;
7961;SDS011;4026;43.652;24.906;2023-06-24T08:28:46;7.85;;;5.88;;
7961;SDS011;4026;43.652;24.906;2023-06-24T08:31:20;9.90;;;6.15;;
7961;SDS011;4026;43.652;24.906;2023-06-24T08:33:51;7.82;;;6.15;;
7961;SDS011;4026;43.652;24.906;2023-06-24T08:36:21;7.00;;;5.45;;
7961;SDS011;4026;43.652;24.906;2023-06-24T08:38:50;8.65;;;6.72;;
7961;SDS011;4026;43.652;24.906;2023-06-24T08:41:17;7.00;;;5.75;;
7961;SDS011;4026;43.652;24.906;2023-06-24T08:43:44;5.80;;;5.10;;
7961;SDS011;4026;43.652;24.906;2023-06-24T08:46:11;7.95;;;5.00;;
7961;SDS011;4026;43.652;24.906;2023-06-24T08:48:39;7.95;;;5.00;;
7961;SDS011;4026;43.652;24.906;2023-06-24T08:51:08;6.20;;;4.80;;
7961;SDS011;4026;43.652;24.906;2023-06-24T08:53:38;6.82;;;4.90;;
7961;SDS011;4026;43.652;24.906;2023-06-24T08:56:10;6.97;;;5.28;;
7961;SDS011;4026;43.652;24.906;2023-06-24T08:58:37;5.80;;;4.75;;
7961;SDS011;4026;43.652;24.906;2023-06-24T09:01:04;5.43;;;4.90;;
7961;SDS011;4026;43.652;24.906;2023-06-24T09:03:33;7.15;;;5.00;;
7961;SDS011;4026;43.652;24.906;2023-06-24T09:06:00;6.35;;;4.78;;
7961;SDS011;4026;43.652;24.906;2023-06-24T09:08:27;6.93;;;4.65;;
7961;SDS011;4026;43.652;24.906;2023-06-24T09:10:54;6.63;;;4.75;;
7961;SDS011;4026;43.652;24.906;2023-06-24T09:13:22;6.07;;;4.80;;
7961;SDS011;4026;43.652;24.906;2023-06-24T09:15:59;5.15;;;4.18;;
7961;SDS011;4026;43.652;24.906;2023-06-24T09:18:34;5.05;;;4.25;;
7961;SDS011;4026;43.652;24.906;2023-06-24T09:21:01;5.78;;;4.68;;
7961;SDS011;4026;43.652;24.906;2023-06-24T09:23:28;6.43;;;4.82;;
7961;SDS011;4026;43.652;24.906;2023-06-24T09:25:55;5.95;;;4.68;;
7961;SDS011;4026;43.652;24.906;2023-06-24T09:28:27;5.03;;;4.18;;
7961;SDS011;4026;43.652;24.906;2023-06-24T09:31:03;5.32;;;4.25;;
7961;SDS011;4026;43.652;24.906;2023-06-24T09:33:31;5.18;;;4.30;;
7961;SDS011;4026;43.652;24.906;2023-06-24T09:35:59;5.55;;;4.43;;
7961;SDS011;4026;43.652;24.906;2023-06-24T09:38:32;5.35;;;4.35;;
7961;SDS011;4026;43.652;24.906;2023-06-24T09:41:01;8.80;;;4.47;;
7961;SDS011;4026;43.652;24.906;2023-06-24T09:43:30;5.72;;;4.07;;
7961;SDS011;4026;43.652;24.906;2023-06-24T09:45:57;6.57;;;4.00;;
7961;SDS011;4026;43.652;24.906;2023-06-24T09:48:26;6.18;;;3.95;;
7961;SDS011;4026;43.652;24.906;2023-06-24T09:50:53;5.78;;;4.13;;
7961;SDS011;4026;43.652;24.906;2023-06-24T09:53:21;4.43;;;3.60;;
7961;SDS011;4026;43.652;24.906;2023-06-24T09:55:49;4.03;;;3.40;;
7961;SDS011;4026;43.652;24.906;2023-06-24T09:58:18;5.13;;;4.03;;
7961;SDS011;4026;43.652;24.906;2023-06-24T10:00:46;5.50;;;4.20;;
7961;SDS011;4026;43.652;24.906;2023-06-24T10:03:14;5.78;;;4.10;;
7961;SDS011;4026;43.652;24.906;2023-06-24T10:05:41;5.15;;;3.95;;
7961;SDS011;4026;43.652;24.906;2023-06-24T10:08:08;5.43;;;4.18;;
7961;SDS011;4026;43.652;24.906;2023-06-24T10:10:36;5.32;;;3.85;;
7961;SDS011;4026;43.652;24.906;2023-06-24T10:13:03;5.50;;;4.10;;
7961;SDS011;4026;43.652;24.906;2023-06-24T10:15:31;5.18;;;4.05;;
7961;SDS011;4026;43.652;24.906;2023-06-24T10:18:02;5.55;;;4.25;;
7961;SDS011;4026;43.652;24.906;2023-06-24T10:20:29;5.13;;;4.00;;
7961;SDS011;4026;43.652;24.906;2023-06-24T10:22:56;4.70;;;3.65;;
7961;SDS011;4026;43.652;24.906;2023-06-24T10:25:24;4.38;;;3.90;;
7961;SDS011;4026;43.652;24.906;2023-06-24T10:28:01;9.27;;;4.75;;
7961;SDS011;4026;43.652;24.906;2023-06-24T10:30:29;5.63;;;3.92;;
7961;SDS011;4026;43.652;24.906;2023-06-24T10:32:59;7.10;;;4.90;;
7961;SDS011;4026;43.652;24.906;2023-06-24T10:35:28;5.80;;;4.13;;
7961;SDS011;4026;43.652;24.906;2023-06-24T10:37:57;5.15;;;3.90;;
7961;SDS011;4026;43.652;24.906;2023-06-24T10:40:35;4.35;;;3.53;;
7961;SDS011;4026;43.652;24.906;2023-06-24T10:43:23;4.50;;;3.65;;
7961;SDS011;4026;43.652;24.906;2023-06-24T10:45:52;4.65;;;3.75;;
7961;SDS011;4026;43.652;24.906;2023-06-24T10:48:20;4.13;;;3.60;;
7961;SDS011;4026;43.652;24.906;2023-06-24T10:50:49;4.63;;;3.85;;
7961;SDS011;4026;43.652;24.906;2023-06-24T10:53:16;6.65;;;4.03;;
7961;SDS011;4026;43.652;24.906;2023-06-24T10:55:45;4.75;;;3.60;;
7961;SDS011;4026;43.652;24.906;2023-06-24T10:58:13;8.48;;;5.25;;
7961;SDS011;4026;43.652;24.906;2023-06-24T11:00:41;16.50;;;10.43;;
7961;SDS011;4026;43.652;24.906;2023-06-24T11:03:11;6.22;;;4.82;;
7961;SDS011;4026;43.652;24.906;2023-06-24T11:05:39;15.65;;;9.23;;
7961;SDS011;4026;43.652;24.906;2023-06-24T11:08:08;5.10;;;4.10;;
7961;SDS011;4026;43.652;24.906;2023-06-24T11:10:41;5.93;;;4.15;;
7961;SDS011;4026;43.652;24.906;2023-06-24T11:13:10;5.50;;;4.25;;
7961;SDS011;4026;43.652;24.906;2023-06-24T11:15:37;4.22;;;3.83;;
7961;SDS011;4026;43.652;24.906;2023-06-24T11:18:07;4.03;;;3.63;;
7961;SDS011;4026;43.652;24.906;2023-06-24T11:20:35;4.50;;;3.90;;
7961;SDS011;4026;43.652;24.906;2023-06-24T11:23:05;4.78;;;3.85;;
7961;SDS011;4026;43.652;24.906;2023-06-24T11:25:37;5.88;;;4.15;;
7961;SDS011;4026;43.652;24.906;2023-06-24T11:28:05;7.63;;;4.15;;
7961;SDS011;4026;43.652;24.906;2023-06-24T11:30:39;7.22;;;3.88;;
7961;SDS011;4026;43.652;24.906;2023-06-24T11:33:05;5.00;;;4.20;;
7961;SDS011;4026;43.652;24.906;2023-06-24T11:35:32;4.95;;;4.13;;
7961;SDS011;4026;43.652;24.906;2023-06-24T11:38:01;4.90;;;3.97;;
7961;SDS011;4026;43.652;24.906;2023-06-24T11:40:30;5.10;;;4.10;;
7961;SDS011;4026;43.652;24.906;2023-06-24T11:42:59;4.78;;;3.88;;
7961;SDS011;4026;43.652;24.906;2023-06-24T11:45:27;5.15;;;4.13;;
7961;SDS011;4026;43.652;24.906;2023-06-24T11:47:54;5.13;;;3.88;;
7961;SDS011;4026;43.652;24.906;2023-06-24T11:50:29;4.95;;;4.18;;
7961;SDS011;4026;43.652;24.906;2023-06-24T11:52:56;4.72;;;3.88;;
7961;SDS011;4026;43.652;24.906;2023-06-24T11:55:24;5.00;;;4.32;;
7961;SDS011;4026;43.652;24.906;2023-06-24T11:57:53;4.93;;;3.97;;
7961;SDS011;4026;43.652;24.906;2023-06-24T12:00:23;7.00;;;3.70;;
7961;SDS011;4026;43.652;24.906;2023-06-24T12:02:52;4.60;;;3.85;;
7961;SDS011;4026;43.652;24.906;2023-06-24T12:05:20;3.85;;;3.45;;
7961;SDS011;4026;43.652;24.906;2023-06-24T12:07:52;5.90;;;4.20;;
7961;SDS011;4026;43.652;24.906;2023-06-24T12:10:21;4.05;;;3.60;;
7961;SDS011;4026;43.652;24.906;2023-06-24T12:12:48;5.43;;;3.97;;
7961;SDS011;4026;43.652;24.906;2023-06-24T12:15:15;4.47;;;3.67;;
7961;SDS011;4026;43.652;24.906;2023-06-24T12:17:43;5.32;;;3.92;;
7961;SDS011;4026;43.652;24.906;2023-06-24T12:20:10;4.97;;;3.83;;
7961;SDS011;4026;43.652;24.906;2023-06-24T12:22:38;4.80;;;3.90;;
7961;SDS011;4026;43.652;24.906;2023-06-24T12:25:06;4.32;;;3.58;;
7961;SDS011;4026;43.652;24.906;2023-06-24T12:27:33;5.38;;;4.20;;
7961;SDS011;4026;43.652;24.906;2023-06-24T12:30:00;4.68;;;3.83;;
7961;SDS011;4026;43.652;24.906;2023-06-24T12:32:27;4.10;;;3.70;;
7961;SDS011;4026;43.652;24.906;2023-06-24T12:34:55;4.80;;;3.80;;
7961;SDS011;4026;43.652;24.906;2023-06-24T12:37:22;4.60;;;3.78;;
7961;SDS011;4026;43.652;24.906;2023-06-24T12:39:49;4.80;;;3.60;;
7961;SDS011;4026;43.652;24.906;2023-06-24T12:42:17;4.30;;;3.50;;
7961;SDS011;4026;43.652;24.906;2023-06-24T12:44:44;5.00;;;3.83;;
7961;SDS011;4026;43.652;24.906;2023-06-24T12:47:12;4.53;;;4.05;;
7961;SDS011;4026;43.652;24.906;2023-06-24T12:49:39;4.72;;;3.88;;
7961;SDS011;4026;43.652;24.906;2023-06-24T12:52:08;4.70;;;3.95;;
7961;SDS011;4026;43.652;24.906;2023-06-24T12:54:34;4.95;;;3.60;;
7961;SDS011;4026;43.652;24.906;2023-06-24T12:57:01;4.32;;;3.75;;
7961;SDS011;4026;43.652;24.906;2023-06-24T12:59:28;4.10;;;3.35;;
7961;SDS011;4026;43.652;24.906;2023-06-24T13:01:55;5.65;;;3.63;;
7961;SDS011;4026;43.652;24.906;2023-06-24T13:04:22;6.68;;;4.22;;
7961;SDS011;4026;43.652;24.906;2023-06-24T13:06:49;4.50;;;3.47;;
7961;SDS011;4026;43.652;24.906;2023-06-24T13:09:17;4.50;;;3.60;;
7961;SDS011;4026;43.652;24.906;2023-06-24T13:11:44;5.38;;;3.92;;
7961;SDS011;4026;43.652;24.906;2023-06-24T13:14:11;4.65;;;3.58;;
7961;SDS011;4026;43.652;24.906;2023-06-24T13:16:38;4.95;;;3.85;;
7961;SDS011;4026;43.652;24.906;2023-06-24T13:19:05;4.35;;;3.42;;
7961;SDS011;4026;43.652;24.906;2023-06-24T13:21:32;6.13;;;3.80;;
7961;SDS011;4026;43.652;24.906;2023-06-24T13:23:59;4.65;;;3.45;;
7961;SDS011;4026;43.652;24.906;2023-06-24T13:26:27;4.80;;;3.70;;
7961;SDS011;4026;43.652;24.906;2023-06-24T13:28:54;5.00;;;3.53;;
7961;SDS011;4026;43.652;24.906;2023-06-24T13:31:21;4.38;;;3.22;;
7961;SDS011;4026;43.652;24.906;2023-06-24T13:33:48;5.15;;;3.53;;
7961;SDS011;4026;43.652;24.906;2023-06-24T13:36:27;4.03;;;3.38;;
7961;SDS011;4026;43.652;24.906;2023-06-24T13:38:57;4.32;;;3.42;;
7961;SDS011;4026;43.652;24.906;2023-06-24T13:41:24;4.28;;;3.47;;
7961;SDS011;4026;43.652;24.906;2023-06-24T13:43:55;4.10;;;3.15;;
7961;SDS011;4026;43.652;24.906;2023-06-24T13:46:23;5.10;;;3.35;;
7961;SDS011;4026;43.652;24.906;2023-06-24T13:48:49;7.05;;;3.45;;
7961;SDS011;4026;43.652;24.906;2023-06-24T13:51:17;5.10;;;3.83;;
7961;SDS011;4026;43.652;24.906;2023-06-24T13:53:44;3.80;;;3.30;;
7961;SDS011;4026;43.652;24.906;2023-06-24T13:56:11;4.50;;;3.63;;
7961;SDS011;4026;43.652;24.906;2023-06-24T13:58:38;3.70;;;3.03;;
7961;SDS011;4026;43.652;24.906;2023-06-24T14:01:06;4.13;;;3.28;;
7961;SDS011;4026;43.652;24.906;2023-06-24T14:03:33;4.47;;;3.45;;
7961;SDS011;4026;43.652;24.906;2023-06-24T14:06:00;4.28;;;3.45;;
7961;SDS011;4026;43.652;24.906;2023-06-24T14:08:28;4.75;;;3.75;;
7961;SDS011;4026;43.652;24.906;2023-06-24T14:10:56;4.65;;;3.25;;
7961;SDS011;4026;43.652;24.906;2023-06-24T14:13:24;4.38;;;3.75;;
7961;SDS011;4026;43.652;24.906;2023-06-24T14:15:52;4.13;;;3.30;;
7961;SDS011;4026;43.652;24.906;2023-06-24T14:18:21;4.20;;;3.35;;
7961;SDS011;4026;43.652;24.906;2023-06-24T14:20:48;4.20;;;3.58;;
7961;SDS011;4026;43.652;24.906;2023-06-24T14:23:15;5.38;;;3.55;;
7961;SDS011;4026;43.652;24.906;2023-06-24T14:25:43;3.95;;;3.10;;
7961;SDS011;4026;43.652;24.906;2023-06-24T14:28:10;4.60;;;3.45;;
7961;SDS011;4026;43.652;24.906;2023-06-24T14:30:37;4.53;;;3.38;;
7961;SDS011;4026;43.652;24.906;2023-06-24T14:33:04;3.50;;;3.08;;
7961;SDS011;4026;43.652;24.906;2023-06-24T14:35:33;5.13;;;3.50;;
7961;SDS011;4026;43.652;24.906;2023-06-24T14:38:00;4.55;;;3.28;;
7961;SDS011;4026;43.652;24.906;2023-06-24T14:40:27;4.35;;;3.08;;
7961;SDS011;4026;43.652;24.906;2023-06-24T14:42:54;5.15;;;3.47;;
7961;SDS011;4026;43.652;24.906;2023-06-24T14:45:21;4.05;;;3.20;;
7961;SDS011;4026;43.652;24.906;2023-06-24T14:47:48;4.57;;;3.42;;
7961;SDS011;4026;43.652;24.906;2023-06-24T14:50:15;4.30;;;3.45;;
7961;SDS011;4026;43.652;24.906;2023-06-24T14:52:43;4.85;;;3.42;;
7961;SDS011;4026;43.652;24.906;2023-06-24T14:55:10;5.15;;;3.58;;
7961;SDS011;4026;43.652;24.906;2023-06-24T14:57:37;4.95;;;3.55;;
7961;SDS011;4026;43.652;24.906;2023-06-24T15:00:04;4.43;;;3.40;;
7961;SDS011;4026;43.652;24.906;2023-06-24T15:02:32;4.50;;;3.45;;
7961;SDS011;4026;43.652;24.906;2023-06-24T15:05:00;7.38;;;3.20;;
7961;SDS011;4026;43.652;24.906;2023-06-24T15:07:27;2.92;;;2.63;;
7961;SDS011;4026;43.652;24.906;2023-06-24T15:09:55;4.70;;;3.67;;